Time;durP1;ratioP1;P1;durP2;ratioP2;P2;SDS_P1;SDS_P2;PMS_P1;PMS_P2;Temp;Humidity;BMP_temperature;BMP_pressure;BME280_temperature;BME280_humidity;BME280_pressure;Samples;Min_cycle;Max_cycle;Signal;HPM_P1;HPM_P2
2023/10/31 00:01:52;;;;;;;0.28;0.15;;;;;;;;;;5019281;28;20064;-81
2023/10/31 00:04:18;;;;;;;0.20;0.03;;;;;;;;;;5016153;28;20187;-81
2023/10/31 00:06:44;;;;;;;0.20;0.10;;;;;;;;;;5016706;28;20048;-81
2023/10/31 00:09:10;;;;;;;0.20;0.08;;;;;;;;;;4997075;28;20044;-81
2023/10/31 00:11:37;;;;;;;0.52;0.47;;;;;;;;;;5026851;28;20068;-82
2023/10/31 00:14:03;;;;;;;0.70;0.40;;;;;;;;;;4998414;28;20056;-81
2023/10/31 00:16:29;;;;;;;0.20;0.00;;;;;;;;;;5015343;28;20034;-82
2023/10/31 00:18:55;;;;;;;0.20;0.00;;;;;;;;;;5008632;28;20084;-82
2023/10/31 00:21:24;;;;;;;0.20;0.10;;;;;;;;;;5001272;28;20424;-83
2023/10/31 00:23:50;;;;;;;0.20;0.10;;;;;;;;;;5015319;28;20569;-83
2023/10/31 00:26:16;;;;;;;0.20;0.17;;;;;;;;;;5024966;28;20065;-83
2023/10/31 00:28:42;;;;;;;0.20;0.00;;;;;;;;;;4998951;28;20030;-82
2023/10/31 00:31:11;;;;;;;0.63;0.30;;;;;;;;;;4995685;28;20046;-83
2023/10/31 00:33:37;;;;;;;0.20;0.15;;;;;;;;;;5035836;28;20164;-83
2023/10/31 00:36:03;;;;;;;0.20;0.10;;;;;;;;;;5007853;28;20064;-82
2023/10/31 00:38:29;;;;;;;0.20;0.10;;;;;;;;;;4997930;28;20102;-82
2023/10/31 00:40:58;;;;;;;0.20;0.10;;;;;;;;;;5008217;28;20044;-82
2023/10/31 00:43:24;;;;;;;0.20;0.10;;;;;;;;;;5009853;28;20434;-81
2023/10/31 00:45:50;;;;;;;0.20;0.00;;;;;;;;;;5008573;28;20084;-82
2023/10/31 00:48:16;;;;;;;0.30;0.30;;;;;;;;;;4997032;28;20053;-82
2023/10/31 00:50:42;;;;;;;0.93;0.55;;;;;;;;;;4998138;28;20457;-82
2023/10/31 00:53:08;;;;;;;0.20;0.20;;;;;;;;;;5007320;28;20044;-83
2023/10/31 00:55:34;;;;;;;0.20;0.00;;;;;;;;;;4993096;28;20515;-83
2023/10/31 00:58:00;;;;;;;0.20;0.10;;;;;;;;;;4996943;28;20614;-81
2023/10/31 01:00:26;;;;;;;0.20;0.10;;;;;;;;;;4997496;28;20498;-82
2023/10/31 01:02:55;;;;;;;0.20;0.00;;;;;;;;;;4996337;28;20046;-82
2023/10/31 01:05:21;;;;;;;0.20;0.03;;;;;;;;;;4992202;28;20080;-82
2023/10/31 01:07:47;;;;;;;0.20;0.10;;;;;;;;;;4992152;28;20070;-84
2023/10/31 01:10:15;;;;;;;0.20;0.00;;;;;;;;;;4988196;28;20107;-82
2023/10/31 01:15:50;;;;;;;0.20;0.05;;;;;;;;;;4994054;28;20332;-83
2023/10/31 01:35:04;;;;;;;0.20;0.00;;;;;;;;;;5018989;28;20049;-86
2023/10/31 01:40:40;;;;;;;;;;;;;;;;;;;;;
2023/10/31 01:46:07;;;;;;;0.20;0.00;;;;;;;;;;5028460;28;20653;-83
2023/10/31 01:48:51;;;;;;;;;;;;;;;;;;;;;
2023/10/31 01:51:37;;;;;;;0.20;0.00;;;;;;;;;;5024183;28;20040;-83
2023/10/31 01:54:21;;;;;;;0.20;0.00;;;;;;;;;;5027324;28;20037;-83
2023/10/31 01:57:06;;;;;;;0.20;0.00;;;;;;;;;;5011704;28;20712;-83
2023/10/31 02:00:16;;;;;;;0.20;0.00;;;;;;;;;;5014487;28;20049;-82
2023/10/31 02:02:44;;;;;;;0.20;0.00;;;;;;;;;;5022977;28;20039;-84
2023/10/31 02:05:13;;;;;;;0.20;0.00;;;;;;;;;;5034621;28;20121;-85
2023/10/31 02:07:39;;;;;;;0.20;0.03;;;;;;;;;;5030745;28;20033;-85
2023/10/31 02:10:05;;;;;;;0.20;0.00;;;;;;;;;;5017013;28;20469;-83
2023/10/31 02:12:32;;;;;;;0.20;0.10;;;;;;;;;;5007400;28;20048;-83
2023/10/31 02:14:58;;;;;;;0.20;0.00;;;;;;;;;;5007523;28;20453;-83
2023/10/31 02:17:24;;;;;;;0.20;0.00;;;;;;;;;;5012234;28;20041;-85
2023/10/31 02:19:51;;;;;;;0.20;0.00;;;;;;;;;;5016129;28;20055;-84
2023/10/31 02:22:17;;;;;;;0.20;0.00;;;;;;;;;;5015661;28;20044;-86
2023/10/31 02:24:43;;;;;;;0.20;0.10;;;;;;;;;;5012208;28;20040;-84
2023/10/31 02:27:09;;;;;;;0.20;0.00;;;;;;;;;;5008860;28;20045;-83
2023/10/31 02:29:35;;;;;;;0.20;0.10;;;;;;;;;;5025828;28;20198;-85
2023/10/31 02:32:01;;;;;;;0.20;0.00;;;;;;;;;;5022076;28;20799;-85
2023/10/31 02:34:27;;;;;;;0.20;0.00;;;;;;;;;;5009703;28;20180;-83
2023/10/31 02:36:53;;;;;;;0.20;0.00;;;;;;;;;;5008640;28;20063;-86
2023/10/31 02:39:19;;;;;;;0.20;0.00;;;;;;;;;;5012177;28;20507;-85
2023/10/31 02:41:45;;;;;;;0.20;0.10;;;;;;;;;;5012244;28;20045;-85
2023/10/31 02:44:11;;;;;;;0.20;0.00;;;;;;;;;;5012583;28;20421;-83
2023/10/31 02:46:40;;;;;;;0.20;0.00;;;;;;;;;;5013839;28;20037;-84
2023/10/31 02:49:08;;;;;;;0.20;0.10;;;;;;;;;;5023987;28;20041;-82
2023/10/31 02:51:34;;;;;;;0.20;0.10;;;;;;;;;;5019020;28;20037;-86
2023/10/31 02:54:00;;;;;;;0.20;0.10;;;;;;;;;;5012104;28;20041;-83
2023/10/31 02:56:26;;;;;;;0.20;0.05;;;;;;;;;;5013493;28;20041;-86
2023/10/31 02:58:58;;;;;;;0.20;0.00;;;;;;;;;;5011046;28;20056;-85
2023/10/31 03:01:28;;;;;;;0.20;0.10;;;;;;;;;;5010335;28;20041;-86
2023/10/31 03:03:54;;;;;;;0.20;0.10;;;;;;;;;;5008687;28;20041;-83
2023/10/31 03:06:23;;;;;;;0.20;0.00;;;;;;;;;;5015686;28;20126;-84
2023/10/31 03:08:57;;;;;;;0.20;0.00;;;;;;;;;;5021574;28;20448;-84
2023/10/31 03:11:24;;;;;;;0.20;0.00;;;;;;;;;;5012272;28;20039;-85
2023/10/31 03:13:50;;;;;;;0.20;0.10;;;;;;;;;;5014574;28;20136;-82
2023/10/31 03:16:16;;;;;;;0.20;0.00;;;;;;;;;;5027434;28;20110;-83
2023/10/31 03:18:42;;;;;;;0.20;0.00;;;;;;;;;;5011029;28;20045;-84
2023/10/31 03:21:08;;;;;;;0.20;0.00;;;;;;;;;;5027215;28;20071;-82
2023/10/31 03:23:34;;;;;;;0.20;0.00;;;;;;;;;;5026964;28;20045;-84
2023/10/31 03:26:00;;;;;;;0.20;0.10;;;;;;;;;;5003553;28;20044;-84
2023/10/31 03:28:27;;;;;;;0.20;0.00;;;;;;;;;;5011837;28;20043;-82
2023/10/31 03:30:53;;;;;;;0.20;0.10;;;;;;;;;;5014019;28;20041;-85
2023/10/31 03:33:19;;;;;;;0.20;0.00;;;;;;;;;;5031840;28;20683;-84
2023/10/31 03:35:45;;;;;;;0.20;0.00;;;;;;;;;;5013597;28;20475;-83
2023/10/31 03:38:11;;;;;;;0.20;0.00;;;;;;;;;;5015532;28;20037;-83
2023/10/31 03:40:38;;;;;;;0.20;0.00;;;;;;;;;;5027200;28;20051;-84
2023/10/31 03:43:04;;;;;;;0.20;0.10;;;;;;;;;;5023159;28;20383;-83
2023/10/31 03:45:30;;;;;;;0.20;0.00;;;;;;;;;;5006542;28;20047;-86
2023/10/31 03:47:56;;;;;;;0.32;0.22;;;;;;;;;;5010355;28;20033;-82
2023/10/31 03:50:22;;;;;;;0.20;0.00;;;;;;;;;;5011083;28;20048;-81
2023/10/31 03:52:51;;;;;;;0.20;0.08;;;;;;;;;;5026850;28;20511;-82
2023/10/31 03:55:17;;;;;;;0.20;0.00;;;;;;;;;;5024867;28;20041;-83
2023/10/31 03:57:44;;;;;;;0.20;0.00;;;;;;;;;;5009384;28;20048;-80
2023/10/31 04:00:11;;;;;;;0.20;0.00;;;;;;;;;;5038509;28;20136;-82
2023/10/31 04:02:37;;;;;;;0.20;0.10;;;;;;;;;;5022854;28;20318;-84
2023/10/31 04:05:04;;;;;;;0.20;0.10;;;;;;;;;;5021474;28;20030;-82
2023/10/31 04:07:30;;;;;;;0.20;0.00;;;;;;;;;;5004459;28;20054;-82
2023/10/31 04:09:56;;;;;;;0.20;0.10;;;;;;;;;;5006691;28;20045;-83
2023/10/31 04:12:22;;;;;;;0.20;0.00;;;;;;;;;;5027546;28;20045;-82
2023/10/31 04:14:48;;;;;;;0.20;0.10;;;;;;;;;;5009381;28;20033;-82
2023/10/31 04:17:14;;;;;;;0.20;0.10;;;;;;;;;;5011568;28;20040;-84
2023/10/31 04:19:40;;;;;;;0.20;0.00;;;;;;;;;;5008862;28;20044;-81
2023/10/31 04:22:06;;;;;;;0.20;0.00;;;;;;;;;;5003551;28;20062;-82
2023/10/31 04:24:32;;;;;;;0.20;0.00;;;;;;;;;;5021277;28;20532;-83
2023/10/31 04:26:58;;;;;;;0.20;0.10;;;;;;;;;;5009525;28;20036;-81
2023/10/31 04:29:24;;;;;;;0.20;0.00;;;;;;;;;;4998912;28;20051;-84
2023/10/31 04:31:50;;;;;;;0.20;0.00;;;;;;;;;;5007985;28;20739;-81
2023/10/31 04:34:16;;;;;;;0.20;0.00;;;;;;;;;;5003276;28;20454;-83
2023/10/31 04:36:42;;;;;;;0.20;0.08;;;;;;;;;;5021245;28;20569;-84
2023/10/31 04:39:10;;;;;;;0.20;0.00;;;;;;;;;;5010545;28;20045;-83
2023/10/31 04:41:36;;;;;;;0.20;0.00;;;;;;;;;;5010978;28;20029;-82
2023/10/31 04:44:02;;;;;;;0.20;0.00;;;;;;;;;;5007263;28;20704;-82
2023/10/31 04:46:28;;;;;;;0.20;0.00;;;;;;;;;;5006435;28;20043;-83
2023/10/31 04:48:55;;;;;;;0.20;0.00;;;;;;;;;;5002812;28;20033;-82
2023/10/31 04:51:21;;;;;;;1.35;1.23;;;;;;;;;;5008319;28;20524;-84
2023/10/31 04:53:47;;;;;;;0.20;0.00;;;;;;;;;;5004859;28;20036;-80
2023/10/31 04:56:14;;;;;;;0.20;0.00;;;;;;;;;;5014392;28;20033;-84
2023/10/31 04:58:40;;;;;;;0.20;0.00;;;;;;;;;;5011414;28;20049;-85
2023/10/31 05:01:16;;;;;;;0.20;0.10;;;;;;;;;;5023659;28;20752;-83
2023/10/31 05:04:18;;;;;;;0.20;0.10;;;;;;;;;;5004210;28;20080;-84
2023/10/31 05:06:44;;;;;;;0.20;0.00;;;;;;;;;;4929291;28;20051;-83
2023/10/31 05:09:17;;;;;;;0.20;0.10;;;;;;;;;;4990854;28;20099;-83
2023/10/31 05:11:43;;;;;;;0.20;0.00;;;;;;;;;;5026637;28;20486;-82
2023/10/31 05:14:10;;;;;;;0.20;0.00;;;;;;;;;;5013739;28;20047;-80
2023/10/31 05:16:40;;;;;;;0.20;0.08;;;;;;;;;;5003686;28;20048;-81
2023/10/31 05:19:06;;;;;;;0.20;0.10;;;;;;;;;;5026142;28;20382;-84
2023/10/31 05:21:32;;;;;;;0.20;0.00;;;;;;;;;;5025597;28;20090;-82
2023/10/31 05:23:58;;;;;;;0.20;0.00;;;;;;;;;;5005479;28;20673;-84
2023/10/31 05:26:24;;;;;;;0.20;0.10;;;;;;;;;;5013454;28;20044;-82
2023/10/31 05:28:50;;;;;;;0.20;0.00;;;;;;;;;;5025472;28;20490;-81
2023/10/31 05:31:17;;;;;;;0.20;0.00;;;;;;;;;;5003616;28;20037;-82
2023/10/31 05:33:45;;;;;;;0.20;0.10;;;;;;;;;;5013439;28;20041;-85
2023/10/31 05:36:29;;;;;;;0.20;0.00;;;;;;;;;;5012344;28;20390;-84
2023/10/31 05:38:55;;;;;;;0.20;0.00;;;;;;;;;;5022826;28;20498;-82
2023/10/31 05:41:21;;;;;;;0.20;0.00;;;;;;;;;;5011568;28;20045;-83
2023/10/31 05:43:49;;;;;;;0.20;0.00;;;;;;;;;;5023282;23;20685;-85
2023/10/31 05:46:33;;;;;;;0.20;0.00;;;;;;;;;;5000550;28;22456;-86
2023/10/31 05:49:02;;;;;;;0.20;0.20;;;;;;;;;;5003686;28;20513;-87
2023/10/31 05:51:36;;;;;;;0.20;0.00;;;;;;;;;;4986309;28;20128;-87
2023/10/31 05:54:02;;;;;;;0.20;0.00;;;;;;;;;;5003500;28;20053;-86
2023/10/31 05:56:29;;;;;;;0.20;0.00;;;;;;;;;;5006176;28;20128;-86
2023/10/31 05:59:09;;;;;;;0.20;0.00;;;;;;;;;;4995499;28;20309;-87
2023/10/31 06:01:40;;;;;;;0.20;0.00;;;;;;;;;;5004026;28;20368;-87
2023/10/31 06:04:06;;;;;;;0.20;0.00;;;;;;;;;;4990268;28;20164;-88
2023/10/31 06:06:40;;;;;;;0.20;0.00;;;;;;;;;;5003165;28;20038;-88
2023/10/31 06:09:14;;;;;;;0.20;0.00;;;;;;;;;;5000755;28;20052;-86
2023/10/31 06:11:42;;;;;;;0.20;0.00;;;;;;;;;;5002214;28;20045;-85
2023/10/31 06:14:08;;;;;;;0.20;0.00;;;;;;;;;;5021795;28;20595;-86
2023/10/31 06:16:40;;;;;;;0.20;0.20;;;;;;;;;;5020106;28;20045;-84
2023/10/31 06:19:07;;;;;;;0.20;0.00;;;;;;;;;;5000606;28;20056;-86
2023/10/31 06:21:39;;;;;;;0.20;0.00;;;;;;;;;;5003634;28;20119;-84
2023/10/31 06:24:06;;;;;;;0.20;0.00;;;;;;;;;;5006449;28;20048;-87
2023/10/31 06:26:32;;;;;;;0.20;0.00;;;;;;;;;;5004058;28;20054;-85
2023/10/31 06:29:04;;;;;;;0.20;0.00;;;;;;;;;;5006460;28;20042;-88
2023/10/31 06:31:30;;;;;;;0.20;0.00;;;;;;;;;;4986234;28;20488;-87
2023/10/31 06:33:56;;;;;;;0.20;0.00;;;;;;;;;;4993363;28;20125;-87
2023/10/31 06:36:22;;;;;;;0.20;0.00;;;;;;;;;;5004810;28;20416;-88
2023/10/31 06:38:48;;;;;;;0.20;0.00;;;;;;;;;;4984042;28;20045;-85
2023/10/31 06:41:14;;;;;;;0.20;0.10;;;;;;;;;;4982614;28;20045;-86
2023/10/31 06:43:40;;;;;;;0.20;0.10;;;;;;;;;;5024899;28;20044;-86
2023/10/31 06:46:07;;;;;;;0.20;0.00;;;;;;;;;;4994288;28;20092;-84
2023/10/31 06:48:33;;;;;;;0.20;0.10;;;;;;;;;;4998683;28;20037;-86
2023/10/31 06:50:59;;;;;;;0.20;0.10;;;;;;;;;;4994495;28;20045;-85
2023/10/31 06:53:36;;;;;;;0.40;0.40;;;;;;;;;;4989822;28;20095;-84
2023/10/31 06:56:09;;;;;;;0.20;0.10;;;;;;;;;;5005437;28;20088;-88
2023/10/31 06:58:38;;;;;;;0.20;0.10;;;;;;;;;;4989177;28;20071;-86
2023/10/31 07:01:07;;;;;;;0.20;0.08;;;;;;;;;;5009007;28;20048;-85
2023/10/31 07:03:33;;;;;;;0.20;0.10;;;;;;;;;;4992926;28;20037;-87
2023/10/31 07:06:05;;;;;;;0.20;0.00;;;;;;;;;;5010672;28;20045;-87
2023/10/31 07:08:31;;;;;;;0.20;0.10;;;;;;;;;;4998877;28;20413;-87
2023/10/31 07:11:00;;;;;;;0.20;0.00;;;;;;;;;;4989698;28;20037;-87
2023/10/31 07:13:29;;;;;;;0.20;0.00;;;;;;;;;;4996465;28;20069;-86
2023/10/31 07:15:55;;;;;;;0.20;0.00;;;;;;;;;;5006232;28;20041;-86
2023/10/31 07:18:23;;;;;;;0.20;0.00;;;;;;;;;;5002834;28;20067;-86
2023/10/31 07:21:05;;;;;;;0.20;0.10;;;;;;;;;;5008283;28;20045;-87
2023/10/31 07:23:33;;;;;;;0.20;0.00;;;;;;;;;;5026171;28;20049;-86
2023/10/31 07:26:00;;;;;;;0.20;0.00;;;;;;;;;;4992248;28;20128;-86
2023/10/31 07:28:26;;;;;;;0.20;0.08;;;;;;;;;;5007113;28;20046;-85
2023/10/31 07:30:52;;;;;;;0.20;0.00;;;;;;;;;;5011276;28;20045;-86
2023/10/31 07:33:21;;;;;;;0.20;0.00;;;;;;;;;;5004019;28;20041;-88
2023/10/31 07:35:49;;;;;;;0.20;0.03;;;;;;;;;;5008368;28;20045;-85
2023/10/31 07:38:28;;;;;;;0.20;0.00;;;;;;;;;;5005730;28;20061;-88
2023/10/31 07:40:54;;;;;;;0.20;0.10;;;;;;;;;;5002081;28;20037;-86
2023/10/31 07:43:22;;;;;;;0.20;0.00;;;;;;;;;;5006107;28;20045;-88
2023/10/31 07:45:48;;;;;;;0.20;0.10;;;;;;;;;;4997314;28;20034;-86
2023/10/31 07:51:12;;;;;;;0.20;0.00;;;;;;;;;;5009621;28;20033;-86
2023/10/31 07:53:38;;;;;;;0.20;0.08;;;;;;;;;;4988928;28;20496;-89
2023/10/31 07:56:17;;;;;;;0.20;0.00;;;;;;;;;;4974075;28;20045;-86
2023/10/31 07:58:47;;;;;;;0.20;0.10;;;;;;;;;;4992415;28;20041;-87
2023/10/31 08:01:13;;;;;;;0.20;0.00;;;;;;;;;;5004875;28;20081;-87
2023/10/31 08:03:40;;;;;;;0.20;0.10;;;;;;;;;;5011388;28;20052;-88
2023/10/31 08:06:12;;;;;;;0.20;0.00;;;;;;;;;;5002103;28;20050;-85
2023/10/31 08:08:38;;;;;;;0.20;0.08;;;;;;;;;;4999596;28;20159;-86
2023/10/31 08:11:04;;;;;;;0.20;0.00;;;;;;;;;;5000344;28;20257;-87
2023/10/31 08:13:30;;;;;;;0.20;0.00;;;;;;;;;;4994068;28;20051;-87
2023/10/31 08:15:56;;;;;;;0.20;0.00;;;;;;;;;;5009834;28;20184;-85
2023/10/31 08:18:24;;;;;;;0.20;0.10;;;;;;;;;;4993692;28;20175;-87
2023/10/31 08:20:50;;;;;;;0.20;0.00;;;;;;;;;;5007552;28;20057;-86
2023/10/31 08:23:25;;;;;;;0.20;0.20;;;;;;;;;;5005988;28;20503;-87
2023/10/31 08:25:51;;;;;;;0.20;0.10;;;;;;;;;;5025717;28;20613;-87
2023/10/31 08:28:17;;;;;;;0.20;0.15;;;;;;;;;;4990432;28;20556;-85
2023/10/31 08:30:43;;;;;;;0.20;0.10;;;;;;;;;;4994643;28;20041;-84
2023/10/31 08:33:09;;;;;;;0.20;0.10;;;;;;;;;;4997834;28;20433;-87
2023/10/31 08:35:35;;;;;;;0.20;0.00;;;;;;;;;;4992457;28;20506;-86
2023/10/31 08:38:04;;;;;;;0.20;0.10;;;;;;;;;;5009527;28;20779;-87
2023/10/31 08:40:30;;;;;;;1.75;1.35;;;;;;;;;;5007514;28;20049;-87
2023/10/31 08:42:56;;;;;;;0.20;0.00;;;;;;;;;;4991923;28;20076;-84
2023/10/31 08:45:23;;;;;;;0.20;0.00;;;;;;;;;;4992117;28;20087;-85
2023/10/31 08:47:50;;;;;;;1.35;0.40;;;;;;;;;;5008815;28;20041;-85
2023/10/31 08:50:22;;;;;;;0.20;0.00;;;;;;;;;;4995548;28;20072;-85
2023/10/31 08:52:48;;;;;;;0.20;0.00;;;;;;;;;;4985815;28;20064;-87
2023/10/31 08:55:14;;;;;;;0.20;0.00;;;;;;;;;;5004869;28;20053;-88
2023/10/31 08:57:40;;;;;;;0.20;0.00;;;;;;;;;;5005762;28;20121;-84
2023/10/31 09:00:09;;;;;;;0.20;0.00;;;;;;;;;;5006988;28;20505;-85
2023/10/31 09:02:35;;;;;;;0.20;0.00;;;;;;;;;;4984050;28;20049;-85
2023/10/31 09:05:01;;;;;;;0.20;0.00;;;;;;;;;;5009839;28;20091;-86
2023/10/31 09:07:27;;;;;;;0.20;0.10;;;;;;;;;;5005804;28;20053;-88
2023/10/31 09:09:53;;;;;;;0.20;0.05;;;;;;;;;;4997520;28;20042;-85
2023/10/31 09:12:22;;;;;;;0.20;0.00;;;;;;;;;;5008759;28;20441;-88
2023/10/31 09:14:48;;;;;;;0.20;0.08;;;;;;;;;;5006520;28;20072;-86
2023/10/31 09:17:14;;;;;;;0.20;0.00;;;;;;;;;;5001591;28;20033;-86
2023/10/31 09:19:40;;;;;;;0.20;0.00;;;;;;;;;;5009271;28;20041;-86
2023/10/31 09:22:06;;;;;;;0.20;0.10;;;;;;;;;;4992487;28;20055;-85
2023/10/31 09:24:32;;;;;;;0.20;0.00;;;;;;;;;;4991011;28;20476;-87
2023/10/31 09:26:58;;;;;;;0.20;0.00;;;;;;;;;;4993477;28;20042;-86
2023/10/31 09:29:31;;;;;;;0.20;0.10;;;;;;;;;;5026709;28;20033;-86
2023/10/31 09:32:00;;;;;;;0.20;0.10;;;;;;;;;;4992194;28;20030;-87
2023/10/31 09:34:35;;;;;;;0.20;0.00;;;;;;;;;;5005300;28;20030;-86
2023/10/31 09:37:04;;;;;;;0.20;0.05;;;;;;;;;;5000634;28;20076;-86
2023/10/31 09:39:32;;;;;;;0.20;0.00;;;;;;;;;;4983185;28;20360;-85
2023/10/31 09:42:05;;;;;;;0.20;0.00;;;;;;;;;;4992049;28;20125;-86
2023/10/31 09:44:31;;;;;;;0.20;0.00;;;;;;;;;;5007168;28;20056;-86
2023/10/31 09:47:14;;;;;;;0.20;0.00;;;;;;;;;;4990162;28;20042;-88
2023/10/31 09:49:40;;;;;;;0.20;0.00;;;;;;;;;;5006859;28;20042;-86
2023/10/31 09:52:20;;;;;;;0.20;0.00;;;;;;;;;;5004507;28;20048;-90
2023/10/31 09:54:55;;;;;;;0.20;0.10;;;;;;;;;;4989126;28;20037;-88
2023/10/31 09:57:30;;;;;;;0.20;0.00;;;;;;;;;;4996253;28;20056;-83
2023/10/31 09:59:56;;;;;;;0.20;0.10;;;;;;;;;;5007908;28;20156;-85
2023/10/31 10:02:54;;;;;;;0.20;0.00;;;;;;;;;;4988204;28;20046;-86
2023/10/31 10:06:00;;;;;;;;;;;;;;;;;;;;;
2023/10/31 10:08:37;;;;;;;0.20;0.10;;;;;;;;;;5007057;28;20398;-87
2023/10/31 10:11:06;;;;;;;0.20;0.00;;;;;;;;;;4993063;28;20403;-86
2023/10/31 10:13:41;;;;;;;0.20;0.00;;;;;;;;;;4995431;28;20049;-86
2023/10/31 10:16:10;;;;;;;0.20;0.10;;;;;;;;;;4990358;28;20171;-84
2023/10/31 10:18:40;;;;;;;0.20;0.10;;;;;;;;;;5007331;28;20534;-84
2023/10/31 10:21:12;;;;;;;0.20;0.10;;;;;;;;;;5028901;28;20200;-84
2023/10/31 10:27:05;;;;;;;0.20;0.00;;;;;;;;;;5008092;28;20571;-84
2023/10/31 10:30:37;;;;;;;0.20;0.00;;;;;;;;;;5010668;28;20572;-84
2023/10/31 10:33:16;;;;;;;0.20;0.00;;;;;;;;;;5029840;28;20113;-85
2023/10/31 10:36:13;;;;;;;0.20;0.00;;;;;;;;;;4998231;28;20045;-85
2023/10/31 10:38:41;;;;;;;0.20;0.00;;;;;;;;;;5008909;28;20038;-86
2023/10/31 10:41:10;;;;;;;0.20;0.00;;;;;;;;;;5003427;28;20037;-87
2023/10/31 10:43:45;;;;;;;0.20;0.00;;;;;;;;;;5011204;28;20061;-86
2023/10/31 10:50:16;;;;;;;;;;;;;;;;;;;;;
2023/10/31 10:52:53;;;;;;;0.20;0.05;;;;;;;;;;5021454;28;20587;-85
2023/10/31 10:58:40;;;;;;;0.20;0.00;;;;;;;;;;5008278;28;20052;-89
2023/10/31 11:04:46;;;;;;;0.20;0.00;;;;;;;;;;4949352;28;20106;-88
2023/10/31 11:07:32;;;;;;;0.20;0.00;;;;;;;;;;4948553;28;20080;-89
2023/10/31 11:13:17;;;;;;;0.20;0.10;;;;;;;;;;4943198;28;20114;-91
2023/10/31 11:15:44;;;;;;;0.20;0.10;;;;;;;;;;4998864;28;20045;-87
2023/10/31 11:18:25;;;;;;;0.20;0.00;;;;;;;;;;5010025;28;20040;-88
2023/10/31 11:20:57;;;;;;;0.20;0.10;;;;;;;;;;5005286;28;20087;-86
2023/10/31 11:24:03;;;;;;;0.20;0.10;;;;;;;;;;4996917;28;20134;-87
2023/10/31 11:26:34;;;;;;;0.20;0.10;;;;;;;;;;5009779;28;20069;-87
2023/10/31 11:29:23;;;;;;;0.20;0.10;;;;;;;;;;5008086;28;20072;-88
2023/10/31 11:32:03;;;;;;;0.20;0.10;;;;;;;;;;5005778;28;20037;-87
2023/10/31 11:34:42;;;;;;;;;;;;;;;;;;;;;
2023/10/31 11:37:28;;;;;;;0.20;0.00;;;;;;;;;;5003075;28;20049;-87
2023/10/31 11:40:13;;;;;;;0.20;0.00;;;;;;;;;;5004220;28;20220;-86
2023/10/31 11:42:39;;;;;;;0.20;0.03;;;;;;;;;;5007166;28;20111;-84
2023/10/31 11:45:05;;;;;;;0.20;0.10;;;;;;;;;;5038937;23;20187;-81
2023/10/31 11:47:52;;;;;;;0.20;0.00;;;;;;;;;;4985986;28;20053;-81
2023/10/31 11:50:18;;;;;;;0.20;0.00;;;;;;;;;;4990636;28;20041;-82
2023/10/31 11:52:44;;;;;;;0.20;0.10;;;;;;;;;;4987623;28;20400;-83
2023/10/31 11:55:11;;;;;;;0.20;0.00;;;;;;;;;;4995143;28;20176;-82
2023/10/31 11:57:37;;;;;;;0.20;0.10;;;;;;;;;;4990858;28;20526;-80
2023/10/31 12:00:04;;;;;;;0.20;0.00;;;;;;;;;;4975314;28;20038;-81
2023/10/31 12:02:30;;;;;;;0.20;0.00;;;;;;;;;;4987530;28;20042;-80
2023/10/31 12:05:09;;;;;;;0.20;0.00;;;;;;;;;;4982319;28;20052;-79
2023/10/31 12:07:44;;;;;;;0.20;0.00;;;;;;;;;;4986887;28;20042;-79
2023/10/31 12:10:10;;;;;;;0.20;0.00;;;;;;;;;;4991250;28;20674;-80
2023/10/31 12:12:36;;;;;;;0.20;0.00;;;;;;;;;;4995296;28;20046;-80
2023/10/31 12:15:06;;;;;;;0.20;0.10;;;;;;;;;;4993771;28;20037;-80
2023/10/31 12:17:33;;;;;;;0.20;0.10;;;;;;;;;;4993976;28;20038;-81
2023/10/31 12:19:59;;;;;;;0.20;0.10;;;;;;;;;;4983602;28;20080;-81
2023/10/31 12:22:25;;;;;;;0.20;0.10;;;;;;;;;;4991101;28;20069;-81
2023/10/31 12:24:51;;;;;;;0.20;0.00;;;;;;;;;;4981655;28;20070;-81
2023/10/31 12:27:17;;;;;;;0.20;0.00;;;;;;;;;;4989436;28;20093;-81
2023/10/31 12:29:44;;;;;;;0.20;0.10;;;;;;;;;;4979592;28;20394;-81
2023/10/31 12:32:13;;;;;;;0.20;0.10;;;;;;;;;;4991681;28;20029;-82
2023/10/31 12:34:43;;;;;;;0.20;0.00;;;;;;;;;;4988552;28;20041;-81
2023/10/31 12:37:10;;;;;;;0.20;0.10;;;;;;;;;;4973238;28;20457;-83
2023/10/31 12:39:36;;;;;;;0.20;0.10;;;;;;;;;;4982332;28;20046;-84
2023/10/31 12:42:03;;;;;;;0.20;0.10;;;;;;;;;;4973338;28;20029;-83
2023/10/31 12:44:29;;;;;;;0.20;0.00;;;;;;;;;;4977196;28;20084;-83
2023/10/31 12:46:55;;;;;;;0.20;0.00;;;;;;;;;;4986562;28;20052;-84
2023/10/31 12:49:21;;;;;;;0.20;0.05;;;;;;;;;;4971706;28;20033;-83
2023/10/31 12:52:01;;;;;;;0.20;0.00;;;;;;;;;;4986423;28;20042;-83
2023/10/31 12:54:31;;;;;;;0.20;0.10;;;;;;;;;;4984714;28;20640;-84
2023/10/31 12:57:01;;;;;;;0.20;0.05;;;;;;;;;;4983942;28;20073;-82
2023/10/31 12:59:27;;;;;;;0.20;0.10;;;;;;;;;;4986344;28;20180;-83
2023/10/31 13:01:54;;;;;;;0.20;0.00;;;;;;;;;;4973761;28;20176;-82
2023/10/31 13:04:26;;;;;;;0.20;0.00;;;;;;;;;;4984126;28;20516;-82
2023/10/31 13:06:56;;;;;;;0.20;0.03;;;;;;;;;;4967273;28;20049;-82
2023/10/31 13:09:22;;;;;;;0.20;0.00;;;;;;;;;;4984298;28;20514;-82
2023/10/31 13:11:49;;;;;;;0.20;0.10;;;;;;;;;;4985670;28;20587;-82
2023/10/31 13:14:15;;;;;;;0.20;0.03;;;;;;;;;;4988061;28;20037;-84
2023/10/31 13:16:41;;;;;;;0.20;0.10;;;;;;;;;;4982579;28;20520;-84
2023/10/31 13:19:07;;;;;;;0.20;0.10;;;;;;;;;;4982643;28;20124;-84
2023/10/31 13:21:33;;;;;;;0.20;0.10;;;;;;;;;;4966889;28;20172;-83
2023/10/31 13:23:59;;;;;;;0.20;0.10;;;;;;;;;;4969869;28;20115;-82
2023/10/31 13:26:25;;;;;;;0.20;0.10;;;;;;;;;;4982592;28;20037;-84
2023/10/31 13:28:52;;;;;;;0.20;0.10;;;;;;;;;;4972457;28;20038;-82
2023/10/31 13:31:18;;;;;;;0.20;0.00;;;;;;;;;;4984906;28;20233;-82
2023/10/31 13:33:44;;;;;;;0.20;0.00;;;;;;;;;;4981887;28;20030;-82
2023/10/31 13:36:11;;;;;;;0.20;0.10;;;;;;;;;;4974900;28;20041;-83
2023/10/31 13:38:38;;;;;;;0.20;0.00;;;;;;;;;;4985527;28;20092;-82
2023/10/31 13:41:04;;;;;;;0.20;0.00;;;;;;;;;;4987931;28;20045;-82
2023/10/31 13:43:30;;;;;;;0.20;0.00;;;;;;;;;;4962855;28;20050;-84
2023/10/31 13:45:56;;;;;;;0.20;0.10;;;;;;;;;;4988141;28;20052;-82
2023/10/31 13:48:22;;;;;;;0.20;0.03;;;;;;;;;;4987423;28;20033;-82
2023/10/31 13:50:49;;;;;;;0.20;0.10;;;;;;;;;;4988234;28;20675;-82
2023/10/31 13:53:16;;;;;;;0.20;0.10;;;;;;;;;;4982954;28;20430;-83
2023/10/31 13:55:42;;;;;;;0.20;0.03;;;;;;;;;;4985560;28;20049;-82
2023/10/31 13:58:09;;;;;;;0.20;0.00;;;;;;;;;;4988639;28;20050;-82
2023/10/31 14:00:35;;;;;;;0.20;0.10;;;;;;;;;;4986966;28;20038;-83
2023/10/31 14:03:01;;;;;;;0.20;0.10;;;;;;;;;;4974059;28;20068;-83
2023/10/31 14:05:27;;;;;;;0.20;0.10;;;;;;;;;;4970786;28;20046;-81
2023/10/31 14:07:53;;;;;;;0.20;0.00;;;;;;;;;;4986545;28;20034;-82
2023/10/31 14:10:20;;;;;;;0.20;0.10;;;;;;;;;;4990248;28;20113;-81
2023/10/31 14:12:49;;;;;;;0.20;0.00;;;;;;;;;;4993209;28;20072;-81
2023/10/31 14:15:15;;;;;;;0.20;0.10;;;;;;;;;;4973813;28;20688;-82
2023/10/31 14:17:41;;;;;;;0.20;0.00;;;;;;;;;;4978640;28;20045;-81
2023/10/31 14:20:07;;;;;;;0.20;0.10;;;;;;;;;;4973067;28;20407;-82
2023/10/31 14:22:33;;;;;;;0.20;0.10;;;;;;;;;;4977657;28;20583;-83
2023/10/31 14:24:59;;;;;;;0.20;0.10;;;;;;;;;;4970757;28;20794;-84
2023/10/31 14:27:25;;;;;;;0.20;0.10;;;;;;;;;;4986487;28;20350;-83
2023/10/31 14:29:53;;;;;;;0.20;0.00;;;;;;;;;;4975195;28;20399;-83
2023/10/31 14:32:19;;;;;;;0.20;0.08;;;;;;;;;;4986039;28;20050;-82
2023/10/31 14:34:46;;;;;;;0.20;0.00;;;;;;;;;;4985162;28;20120;-83
2023/10/31 14:37:12;;;;;;;0.20;0.00;;;;;;;;;;4971013;28;20618;-82
2023/10/31 14:39:38;;;;;;;0.20;0.00;;;;;;;;;;4982283;28;20058;-82
2023/10/31 14:42:04;;;;;;;0.20;0.05;;;;;;;;;;4984968;28;20074;-82
2023/10/31 14:44:30;;;;;;;0.20;0.10;;;;;;;;;;4986536;28;20049;-81
2023/10/31 14:46:57;;;;;;;0.20;0.05;;;;;;;;;;4986665;28;20363;-82
2023/10/31 14:49:23;;;;;;;0.20;0.10;;;;;;;;;;4986138;28;20105;-82
2023/10/31 14:51:49;;;;;;;0.20;0.00;;;;;;;;;;4968471;28;20049;-82
2023/10/31 14:54:15;;;;;;;0.20;0.00;;;;;;;;;;4980192;28;20762;-82
2023/10/31 14:56:42;;;;;;;0.20;0.10;;;;;;;;;;4988818;28;20054;-82
2023/10/31 14:59:08;;;;;;;0.20;0.00;;;;;;;;;;4976149;28;20037;-81
2023/10/31 15:01:34;;;;;;;0.20;0.00;;;;;;;;;;4985469;28;20319;-81
2023/10/31 15:04:00;;;;;;;0.20;0.00;;;;;;;;;;5004418;28;20434;-81
2023/10/31 15:06:26;;;;;;;0.20;0.10;;;;;;;;;;5004929;28;20566;-81
2023/10/31 15:08:52;;;;;;;0.20;0.10;;;;;;;;;;4992706;28;20119;-81
2023/10/31 15:11:18;;;;;;;0.20;0.00;;;;;;;;;;4997687;28;20096;-81
2023/10/31 15:13:44;;;;;;;0.20;0.00;;;;;;;;;;4990204;28;20033;-81
2023/10/31 15:16:10;;;;;;;0.20;0.00;;;;;;;;;;4991040;28;20042;-81
2023/10/31 15:18:36;;;;;;;0.20;0.10;;;;;;;;;;4989394;28;20046;-81
2023/10/31 15:21:02;;;;;;;0.20;0.05;;;;;;;;;;4988009;28;20080;-82
2023/10/31 15:23:30;;;;;;;0.30;0.25;;;;;;;;;;4989052;28;20042;-80
2023/10/31 15:26:00;;;;;;;0.20;0.03;;;;;;;;;;4989810;28;20038;-81
2023/10/31 15:28:26;;;;;;;0.35;0.15;;;;;;;;;;4986488;28;20044;-82
2023/10/31 15:30:52;;;;;;;0.20;0.00;;;;;;;;;;4990818;28;20088;-81
2023/10/31 15:33:19;;;;;;;0.20;0.00;;;;;;;;;;4987083;28;20581;-82
2023/10/31 15:35:45;;;;;;;0.20;0.00;;;;;;;;;;4987898;28;20046;-82
2023/10/31 15:38:11;;;;;;;0.20;0.00;;;;;;;;;;4987596;28;20133;-80
2023/10/31 15:40:37;;;;;;;0.20;0.10;;;;;;;;;;4985749;28;20525;-81
2023/10/31 15:43:03;;;;;;;0.20;0.10;;;;;;;;;;4967387;28;20069;-81
2023/10/31 15:45:29;;;;;;;0.20;0.10;;;;;;;;;;4971039;28;20082;-82